createdAt,value
2019-05-18T00:00:59.939Z,99792.30
2019-05-18T00:03:28.420Z,99789.36
2019-05-18T00:05:56.821Z,99795.34
2019-05-18T00:08:25.255Z,99799.22
2019-05-18T00:10:53.648Z,99799.22
2019-05-18T00:13:22.126Z,99804.30
2019-05-18T00:15:50.551Z,99797.98
2019-05-18T00:18:19.019Z,99803.50
2019-05-18T00:20:47.424Z,99807.72
2019-05-18T00:23:15.889Z,99809.41
2019-05-18T00:25:44.376Z,99807.68
2019-05-18T00:28:12.769Z,99806.88
2019-05-18T00:30:41.193Z,99810.27
2019-05-18T00:33:09.614Z,99796.20
2019-05-18T00:35:38.049Z,99806.09
2019-05-18T00:38:06.437Z,99799.27
2019-05-18T00:40:34.917Z,99794.21
2019-05-18T00:43:03.413Z,99790.88
2019-05-18T00:45:31.828Z,99795.59
2019-05-18T00:48:00.231Z,99785.41
2019-05-18T00:50:28.627Z,99781.98
2019-05-18T00:52:57.117Z,99776.03
2019-05-18T00:55:25.525Z,99775.22
2019-05-18T00:57:53.957Z,99767.56
2019-05-18T01:00:22.615Z,99772.27
2019-05-18T01:02:51.018Z,99764.19
2019-05-18T01:05:19.466Z,99765.97
2019-05-18T01:07:47.916Z,99762.54
2019-05-18T01:10:16.562Z,99757.45
2019-05-18T01:12:44.959Z,99759.11
2019-05-18T01:15:13.982Z,99767.17
2019-05-18T01:17:56.385Z,99764.63
2019-05-18T01:20:12.865Z,99771.89
2019-05-18T01:22:41.267Z,99773.59
2019-05-18T01:25:09.843Z,99769.35
2019-05-18T01:27:38.233Z,99764.19
2019-05-18T01:30:08.003Z,99765.48
2019-05-18T01:32:36.474Z,99767.17
2019-05-18T01:35:08.402Z,99764.18
2019-05-18T01:37:36.825Z,99762.91
2019-05-18T01:40:06.956Z,99763.77
2019-05-18T01:42:35.378Z,99764.26
2019-05-18T01:45:16.271Z,99765.53
2019-05-18T01:47:38.455Z,99764.25
2019-05-18T01:50:08.042Z,99769.76
2019-05-18T01:52:36.532Z,99769.33
2019-05-18T01:55:06.849Z,99770.22
2019-05-18T01:57:35.321Z,99763.39
2019-05-18T02:00:05.886Z,99764.25
2019-05-18T02:02:34.263Z,99759.95
2019-05-18T02:05:02.896Z,99761.20
2019-05-18T02:07:31.252Z,99759.94
2019-05-18T02:09:59.648Z,99756.97
2019-05-18T02:12:28.065Z,99759.13
2019-05-18T02:14:56.530Z,99758.27
2019-05-18T02:17:25.023Z,99758.27
2019-05-18T02:19:53.425Z,99753.56
2019-05-18T02:22:21.893Z,99754.88
2019-05-18T02:24:50.310Z,99753.15
2019-05-18T02:27:18.717Z,99754.39
2019-05-18T02:29:47.231Z,99753.53
2019-05-18T02:32:15.675Z,99753.11
2019-05-18T02:34:44.074Z,99749.69
2019-05-18T02:37:12.555Z,99741.56
2019-05-18T02:39:40.969Z,99750.48
2019-05-18T02:42:09.474Z,99744.53
2019-05-18T02:44:37.918Z,99740.25
2019-05-18T02:47:06.339Z,99748.41
2019-05-18T02:49:34.759Z,99743.72
2019-05-18T02:52:03.148Z,99753.08
2019-05-18T02:54:31.598Z,99751.83
2019-05-18T02:57:00.045Z,99751.42
2019-05-18T02:59:28.429Z,99743.73
2019-05-18T03:01:56.829Z,99747.14
2019-05-18T03:04:25.306Z,99751.41
2019-05-18T03:06:53.734Z,99744.58
2019-05-18T03:09:22.266Z,99747.14
2019-05-18T03:11:50.698Z,99753.58
2019-05-18T03:14:19.208Z,99748.89
2019-05-18T03:16:47.673Z,99744.27
2019-05-18T03:19:16.224Z,99745.52
2019-05-18T03:21:45.706Z,99745.52
2019-05-18T03:24:14.184Z,99739.98
2019-05-18T03:26:42.607Z,99740.83
2019-05-18T03:29:10.993Z,99738.27
2019-05-18T03:31:39.424Z,99735.27
2019-05-18T03:34:07.896Z,99739.55
2019-05-18T03:36:36.538Z,99736.16
2019-05-18T03:39:06.176Z,99738.73
2019-05-18T03:41:34.690Z,99736.59
2019-05-18T03:44:03.184Z,99732.76
2019-05-18T03:46:31.660Z,99734.89
2019-05-18T03:49:00.056Z,99737.45
2019-05-18T03:51:28.466Z,99739.16
2019-05-18T03:53:56.876Z,99740.45
2019-05-18T03:56:25.291Z,99737.89
2019-05-18T03:58:53.713Z,99735.34
2019-05-18T04:01:22.249Z,99733.20
2019-05-18T04:03:50.715Z,99735.34
2019-05-18T04:06:19.119Z,99731.08
2019-05-18T04:08:47.568Z,99734.48
2019-05-18T04:11:15.970Z,99732.34
2019-05-18T04:13:44.365Z,99730.22
2019-05-18T04:16:12.813Z,99729.38
2019-05-18T04:18:41.199Z,99725.06
2019-05-18T04:21:09.598Z,99722.52
2019-05-18T04:23:38.016Z,99729.33
2019-05-18T04:26:06.409Z,99726.32
2019-05-18T04:28:34.832Z,99730.15
2019-05-18T04:31:03.291Z,99732.70
2019-05-18T04:33:31.750Z,99733.14
2019-05-18T04:36:00.248Z,99733.52
2019-05-18T04:38:28.669Z,99735.61
2019-05-18T04:40:57.130Z,99731.80
2019-05-18T04:43:25.560Z,99729.66
2019-05-18T04:45:53.953Z,99737.72
2019-05-18T04:48:22.405Z,99738.54
2019-05-18T04:50:50.883Z,99737.27
2019-05-18T04:53:19.279Z,99735.14
2019-05-18T04:55:47.696Z,99732.55
2019-05-18T04:58:16.203Z,99738.08
2019-05-18T05:00:44.921Z,99740.22
2019-05-18T05:03:13.442Z,99735.52
2019-05-18T05:05:41.867Z,99744.89
2019-05-18T05:08:10.585Z,99743.17
2019-05-18T05:10:38.936Z,99744.42
2019-05-18T05:13:07.372Z,99743.97
2019-05-18T05:15:35.776Z,99742.24
2019-05-18T05:18:04.260Z,99735.84
2019-05-18T05:20:32.688Z,99737.99
2019-05-18T05:23:01.103Z,99739.67
2019-05-18T05:25:29.524Z,99737.13
2019-05-18T05:27:57.952Z,99731.56
2019-05-18T05:30:26.373Z,99733.24
2019-05-18T05:32:54.840Z,99734.92
2019-05-18T05:35:23.275Z,99740.00
2019-05-18T05:37:51.672Z,99737.02
2019-05-18T05:40:20.166Z,99742.58
2019-05-18T05:42:48.661Z,99743.02
2019-05-18T05:45:17.434Z,99743.88
2019-05-18T05:47:45.868Z,99752.40
2019-05-18T05:50:14.514Z,99757.08
2019-05-18T05:52:43.059Z,99763.89
2019-05-18T05:55:11.610Z,99759.19
2019-05-18T05:57:40.085Z,99757.05
2019-05-18T06:00:09.645Z,99762.13
2019-05-18T06:02:38.053Z,99761.25
2019-05-18T06:05:07.017Z,99758.27
2019-05-18T06:07:35.689Z,99762.08
2019-05-18T06:10:05.837Z,99755.25
2019-05-18T06:12:34.257Z,99761.19
2019-05-18T06:15:02.762Z,99763.69
2019-05-18T06:17:31.153Z,99766.23
2019-05-18T06:19:59.577Z,99765.71
2019-05-18T06:22:27.998Z,99766.95
2019-05-18T06:24:56.422Z,99764.75
2019-05-18T06:27:24.830Z,99760.02
2019-05-18T06:29:53.319Z,99762.99
2019-05-18T06:32:21.806Z,99759.95
2019-05-18T06:34:50.212Z,99769.27
2019-05-18T06:37:18.632Z,99768.37
2019-05-18T06:39:47.088Z,99767.45
2019-05-18T06:42:15.514Z,99777.23
2019-05-18T06:44:43.979Z,99779.73
2019-05-18T06:47:12.446Z,99781.80
2019-05-18T06:49:40.874Z,99783.47
2019-05-18T06:52:09.279Z,99779.98
2019-05-18T06:54:37.786Z,99781.19
2019-05-18T06:57:07.145Z,99778.59
2019-05-18T06:59:37.693Z,99785.73
2019-05-18T07:02:06.111Z,99787.77
2019-05-18T07:04:34.512Z,99783.34
2019-05-18T07:07:02.929Z,99785.41
2019-05-18T07:09:31.338Z,99781.84
2019-05-18T07:11:59.798Z,99783.02
2019-05-18T07:14:28.192Z,99784.19
2019-05-18T07:16:56.599Z,99782.34
2019-05-18T07:19:25.032Z,99781.84
2019-05-18T07:21:53.460Z,99780.89
2019-05-18T07:24:21.876Z,99781.64
2019-05-18T07:26:50.285Z,99786.29
2019-05-18T07:29:18.747Z,99784.55
2019-05-18T07:31:47.184Z,99784.41
2019-05-18T07:34:17.368Z,99782.64
2019-05-18T07:36:45.845Z,99782.92
2019-05-18T07:39:14.289Z,99777.31
2019-05-18T07:41:46.900Z,99776.84
2019-05-18T07:44:12.914Z,99778.05
2019-05-18T07:46:41.332Z,99782.21
2019-05-18T07:49:09.859Z,99783.00
2019-05-18T07:51:38.364Z,99785.11
2019-05-18T07:54:06.788Z,99791.48
2019-05-18T07:56:35.272Z,99793.50
2019-05-18T07:59:03.740Z,99791.25
2019-05-18T08:01:32.177Z,99792.03
2019-05-18T08:04:00.603Z,99790.69
2019-05-18T08:06:29.009Z,99792.70
2019-05-18T08:08:57.501Z,99788.77
2019-05-18T08:11:25.916Z,99799.42
2019-05-18T08:13:54.438Z,99794.14
2019-05-18T08:16:22.886Z,99794.45
2019-05-18T08:18:51.325Z,99797.91
2019-05-18T08:21:19.743Z,99788.49
2019-05-18T08:23:48.176Z,99793.14
2019-05-18T08:26:16.614Z,99791.81
2019-05-18T08:28:45.099Z,99792.70
2019-05-18T08:31:13.591Z,99793.55
2019-05-18T08:33:42.074Z,99790.16
2019-05-18T08:36:10.552Z,99797.06
2019-05-18T08:38:39.036Z,99791.09
2019-05-18T08:41:07.596Z,99796.97
2019-05-18T08:43:36.022Z,99783.22
2019-05-18T08:46:04.504Z,99788.70
2019-05-18T08:48:32.994Z,99791.55
2019-05-18T08:51:01.424Z,99782.91
2019-05-18T08:53:29.846Z,99783.19
2019-05-18T08:55:58.245Z,99786.77
2019-05-18T08:58:26.836Z,99789.32
2019-05-18T09:00:55.293Z,99794.36
2019-05-18T09:03:23.729Z,99804.09
2019-05-18T09:05:52.126Z,99804.90
2019-05-18T09:08:20.545Z,99798.63
2019-05-18T09:10:49.063Z,99800.26
2019-05-18T09:13:17.481Z,99799.38
2019-05-18T09:15:45.881Z,99802.25
2019-05-18T09:18:14.305Z,99806.92
2019-05-18T09:20:42.736Z,99806.58
2019-05-18T09:23:11.189Z,99801.63
2019-05-18T09:25:39.593Z,99801.78
2019-05-18T09:28:08.020Z,99803.96
2019-05-18T09:30:36.548Z,99804.36
2019-05-18T09:33:05.035Z,99804.36
2019-05-18T09:35:33.446Z,99805.05
2019-05-18T09:38:01.909Z,99807.97
2019-05-18T09:40:30.368Z,99810.30
2019-05-18T09:42:58.762Z,99812.80
2019-05-18T09:45:27.294Z,99813.13
2019-05-18T09:47:55.718Z,99810.05
2019-05-18T09:50:24.213Z,99805.96
2019-05-18T09:52:52.760Z,99801.16
2019-05-18T09:55:21.317Z,99798.17
2019-05-18T09:57:49.808Z,99797.33
2019-05-18T10:00:19.673Z,99797.98
2019-05-18T10:02:48.095Z,99799.05
2019-05-18T10:05:16.654Z,99796.88
2019-05-18T10:07:45.044Z,99797.94
2019-05-18T10:10:14.191Z,99795.84
2019-05-18T10:12:42.603Z,99796.29
2019-05-18T10:15:11.406Z,99793.72
2019-05-18T10:17:39.813Z,99795.80
2019-05-18T10:20:09.280Z,99798.39
2019-05-18T10:22:51.193Z,99786.14
2019-05-18T10:25:08.049Z,99785.78
2019-05-18T10:27:36.465Z,99786.39
2019-05-18T10:30:06.988Z,99788.92
2019-05-18T10:32:35.388Z,99789.20
2019-05-18T10:35:05.457Z,99785.09
2019-05-18T10:37:33.858Z,99791.22
2019-05-18T10:40:02.280Z,99788.14
2019-05-18T10:42:30.736Z,99786.45
2019-05-18T10:44:59.174Z,99788.94
2019-05-18T10:47:27.658Z,99781.44
2019-05-18T10:49:56.237Z,99789.25
2019-05-18T10:52:24.656Z,99792.23
2019-05-18T10:54:53.051Z,99787.52
2019-05-18T10:57:21.468Z,99785.36
2019-05-18T10:59:49.878Z,99789.05
2019-05-18T11:02:18.345Z,99793.52
2019-05-18T11:04:46.757Z,99785.20
2019-05-18T11:07:15.196Z,99785.34
2019-05-18T11:09:43.616Z,99784.86
2019-05-18T11:12:12.007Z,99781.60
2019-05-18T11:14:40.430Z,99772.78
2019-05-18T11:17:08.831Z,99777.23
2019-05-18T11:19:37.249Z,99774.72
2019-05-18T11:22:05.793Z,99777.52
2019-05-18T11:24:34.188Z,99773.72
2019-05-18T11:27:02.600Z,99640.88
2019-05-18T11:29:31.002Z,99780.40
2019-05-18T11:31:59.419Z,99778.83
2019-05-18T11:34:27.821Z,99771.84
2019-05-18T11:36:56.375Z,99770.55
2019-05-18T11:39:24.944Z,99760.47
2019-05-18T11:41:53.436Z,99760.16
2019-05-18T11:44:21.936Z,99766.82
2019-05-18T11:46:50.312Z,99762.54
2019-05-18T11:49:18.745Z,99763.00
2019-05-18T11:51:47.197Z,99758.98
2019-05-18T11:54:15.618Z,99756.06
2019-05-18T11:56:44.193Z,99755.94
2019-05-18T11:59:15.619Z,99752.84
2019-05-18T12:01:42.751Z,99756.13
2019-05-18T12:04:11.246Z,99750.25
2019-05-18T12:06:39.676Z,99744.12
2019-05-18T12:09:08.218Z,99734.95
2019-05-18T12:11:36.685Z,99735.36
2019-05-18T12:14:05.234Z,99740.17
2019-05-18T12:16:33.700Z,99743.08
2019-05-18T12:19:02.120Z,99741.31
2019-05-18T12:21:30.514Z,99735.13
2019-05-18T12:24:14.158Z,99743.19
2019-05-18T12:26:29.134Z,99745.27
2019-05-18T12:28:57.551Z,99738.88
2019-05-18T12:31:26.133Z,99739.78
2019-05-18T12:33:54.544Z,99734.86
2019-05-18T12:36:22.968Z,99739.92
2019-05-18T12:38:51.365Z,99740.15
2019-05-18T12:41:21.396Z,99736.77
2019-05-18T12:43:49.957Z,99736.38
2019-05-18T12:46:18.413Z,99731.90
2019-05-18T12:48:46.834Z,99738.64
2019-05-18T12:51:15.248Z,99729.27
2019-05-18T12:53:43.652Z,99732.07
2019-05-18T12:56:12.116Z,99735.19
2019-05-18T12:58:40.523Z,99732.11
2019-05-18T13:01:09.005Z,99729.83
2019-05-18T13:03:37.397Z,99735.19
2019-05-18T13:06:06.865Z,99738.81
2019-05-18T13:08:35.245Z,99724.37
2019-05-18T13:11:03.750Z,99721.34
2019-05-18T13:13:32.137Z,99712.05
2019-05-18T13:16:00.532Z,99711.05
2019-05-18T13:18:29.021Z,99713.62
2019-05-18T13:20:57.480Z,99706.23
2019-05-18T13:23:25.876Z,99709.30
2019-05-18T13:25:54.332Z,99710.69
2019-05-18T13:28:22.809Z,99715.78
2019-05-18T13:30:51.281Z,99711.76
2019-05-18T13:33:19.687Z,99702.86
2019-05-18T13:35:48.112Z,99693.30
2019-05-18T13:38:16.522Z,99694.27
2019-05-18T13:40:45.006Z,99691.66
2019-05-18T13:43:13.501Z,99689.52
2019-05-18T13:45:41.932Z,99692.58
2019-05-18T13:48:10.341Z,99688.17
2019-05-18T13:50:38.872Z,99686.00
2019-05-18T13:53:07.340Z,99687.67
2019-05-18T13:55:35.755Z,99689.05
2019-05-18T13:58:04.223Z,99687.86
2019-05-18T14:00:32.817Z,99684.75
2019-05-18T14:03:01.377Z,99684.13
2019-05-18T14:05:29.900Z,99682.27
2019-05-18T14:07:58.393Z,99679.68
2019-05-18T14:10:26.823Z,99680.97
2019-05-18T14:12:55.308Z,99678.58
2019-05-18T14:15:23.794Z,99677.22
2019-05-18T14:17:52.338Z,99681.08
2019-05-18T14:20:20.894Z,99683.40
2019-05-18T14:22:49.351Z,99681.02
2019-05-18T14:25:20.304Z,99682.52
2019-05-18T14:27:49.622Z,99686.14
2019-05-18T14:30:19.200Z,99687.66
2019-05-18T14:32:47.747Z,99688.50
2019-05-18T14:35:16.654Z,99690.64
2019-05-18T14:37:45.146Z,99695.73
2019-05-18T14:40:13.967Z,99688.61
2019-05-18T14:42:42.448Z,99692.72
2019-05-18T14:45:11.224Z,99700.40
2019-05-18T14:47:39.672Z,99718.20
2019-05-18T14:50:08.746Z,99719.84
2019-05-18T14:52:37.179Z,99730.17
2019-05-18T14:55:06.560Z,99724.86
2019-05-18T14:57:35.116Z,99723.42
2019-05-18T15:00:04.401Z,99730.20
2019-05-18T15:02:32.881Z,99726.31
2019-05-18T15:05:01.987Z,99733.00
2019-05-18T15:07:30.801Z,99731.83
2019-05-18T15:09:59.378Z,99730.97
2019-05-18T15:12:27.892Z,99732.97
2019-05-18T15:14:56.352Z,99734.57
2019-05-18T15:17:24.767Z,99732.13
2019-05-18T15:19:53.275Z,99729.64
2019-05-18T15:22:21.672Z,99728.15
2019-05-18T15:24:50.152Z,99729.70
2019-05-18T15:27:18.650Z,99726.23
2019-05-18T15:29:47.044Z,99725.61
2019-05-18T15:32:15.480Z,99726.09
2019-05-18T15:34:43.973Z,99720.94
2019-05-18T15:37:12.454Z,99723.61
2019-05-18T15:39:40.873Z,99724.55
2019-05-18T15:42:09.465Z,99726.94
2019-05-18T15:44:37.929Z,99718.00
2019-05-18T15:47:06.331Z,99718.30
2019-05-18T15:49:34.838Z,99719.50
2019-05-18T15:52:03.339Z,99711.81
2019-05-18T15:54:31.826Z,99709.23
2019-05-18T15:57:00.327Z,99712.79
2019-05-18T15:59:28.800Z,99706.13
2019-05-18T16:01:57.275Z,99712.27
2019-05-18T16:04:25.697Z,99714.78
2019-05-18T16:06:54.190Z,99715.84
2019-05-18T16:09:22.616Z,99719.00
2019-05-18T16:11:51.045Z,99724.66
2019-05-18T16:14:19.486Z,99723.78
2019-05-18T16:16:48.228Z,99723.41
2019-05-18T16:19:16.812Z,99727.40
2019-05-18T16:21:45.271Z,99724.17
2019-05-18T16:24:13.696Z,99719.11
2019-05-18T16:26:42.180Z,99732.03
2019-05-18T16:29:10.684Z,99733.27
2019-05-18T16:31:39.096Z,99730.42
2019-05-18T16:34:07.537Z,99733.72
2019-05-18T16:36:35.935Z,99735.75
2019-05-18T16:39:06.155Z,99732.03
2019-05-18T16:41:34.636Z,99735.00
2019-05-18T16:44:03.215Z,99745.33
2019-05-18T16:46:31.642Z,99742.73
2019-05-18T16:49:01.567Z,99742.85
2019-05-18T16:51:29.949Z,99742.39
2019-05-18T16:53:58.471Z,99748.63
2019-05-18T16:56:34.877Z,99747.23
2019-05-18T16:58:57.001Z,99752.22
2019-05-18T17:01:25.572Z,99754.06
2019-05-18T17:03:54.037Z,99756.05
2019-05-18T17:06:22.456Z,99763.53
2019-05-18T17:08:50.910Z,99765.72
2019-05-18T17:11:19.358Z,99767.42
2019-05-18T17:13:47.826Z,99759.36
2019-05-18T17:16:16.241Z,99764.09
2019-05-18T17:18:44.670Z,99767.14
2019-05-18T17:21:13.087Z,99769.34
2019-05-18T17:23:41.543Z,99770.18
2019-05-18T17:26:10.080Z,99767.81
2019-05-18T17:28:38.518Z,99758.78
2019-05-18T17:31:07.106Z,99764.61
2019-05-18T17:33:35.524Z,99764.84
2019-05-18T17:36:04.004Z,99767.83
2019-05-18T17:38:32.455Z,99765.00
2019-05-18T17:41:01.000Z,99758.88
2019-05-18T17:43:29.536Z,99759.51
2019-05-18T17:45:58.004Z,99761.97
2019-05-18T17:48:26.901Z,99762.03
2019-05-18T17:50:55.347Z,99759.88
2019-05-18T17:53:23.772Z,99753.00
2019-05-18T17:55:52.324Z,99760.38
2019-05-18T17:58:20.805Z,99760.60
2019-05-18T18:00:49.272Z,99766.25
2019-05-18T18:03:17.774Z,99761.40
2019-05-18T18:05:46.311Z,99761.80
2019-05-18T18:08:14.747Z,99760.41
2019-05-18T18:10:43.703Z,99761.59
2019-05-18T18:13:12.206Z,99762.49
2019-05-18T18:15:40.650Z,99765.98
2019-05-18T18:18:09.087Z,99772.10
2019-05-18T18:20:37.481Z,99775.20
2019-05-18T18:23:05.937Z,99773.30
2019-05-18T18:25:34.669Z,99777.81
2019-05-18T18:28:03.190Z,99771.81
2019-05-18T18:30:31.686Z,99774.47
2019-05-18T18:33:00.111Z,99779.39
2019-05-18T18:35:28.531Z,99778.89
2019-05-18T18:37:56.951Z,99785.42
2019-05-18T18:40:25.524Z,99778.16
2019-05-18T18:42:53.988Z,99776.91
2019-05-18T18:45:22.552Z,99783.16
2019-05-18T18:47:50.954Z,99779.78
2019-05-18T18:50:19.496Z,99788.00
2019-05-18T18:52:48.001Z,99788.11
2019-05-18T18:55:16.550Z,99779.78
2019-05-18T18:57:45.087Z,99785.02
2019-05-18T19:00:14.054Z,99782.59
2019-05-18T19:02:42.549Z,99786.98
2019-05-18T19:05:11.415Z,99783.59
2019-05-18T19:07:39.857Z,99783.62
2019-05-18T19:10:08.714Z,99783.33
2019-05-18T19:12:37.299Z,99782.09
2019-05-18T19:15:09.803Z,99783.78
2019-05-18T19:17:38.228Z,99787.27
2019-05-18T19:20:07.793Z,99782.20
2019-05-18T19:22:36.222Z,99785.39
2019-05-18T19:25:06.283Z,99789.50
2019-05-18T19:27:34.839Z,99793.64
2019-05-18T19:30:09.360Z,99793.94
2019-05-18T19:32:34.650Z,99794.32
2019-05-18T19:35:03.091Z,99799.23
2019-05-18T19:37:31.535Z,99801.78
2019-05-18T19:39:59.992Z,99806.45
2019-05-18T19:42:28.519Z,99815.33
2019-05-18T19:44:56.929Z,99815.67
2019-05-18T19:47:25.456Z,99816.73
2019-05-18T19:49:53.979Z,99816.22
2019-05-18T19:52:22.435Z,99814.66
2019-05-18T19:54:50.875Z,99817.48
2019-05-18T19:57:19.297Z,99811.87
2019-05-18T19:59:47.755Z,99820.77
2019-05-18T20:02:18.507Z,99822.77
2019-05-18T20:05:05.623Z,99830.52
2019-05-18T20:07:16.635Z,99842.53
2019-05-18T20:09:45.107Z,99854.17
2019-05-18T20:12:13.667Z,99864.07
2019-05-18T20:14:42.147Z,99873.14
2019-05-18T20:17:10.674Z,99871.78
2019-05-18T20:19:39.951Z,99876.06
2019-05-18T20:22:08.595Z,99881.63
2019-05-18T20:24:36.996Z,99888.66
2019-05-18T20:27:05.444Z,99896.91
2019-05-18T20:29:33.843Z,99890.90
2019-05-18T20:32:02.284Z,99887.84
2019-05-18T20:34:30.773Z,99887.50
2019-05-18T20:36:59.197Z,99887.19
2019-05-18T20:39:27.646Z,99874.50
2019-05-18T20:41:56.067Z,99874.07
2019-05-18T20:44:24.584Z,99870.63
2019-05-18T20:46:52.999Z,99866.23
2019-05-18T20:49:21.421Z,99855.86
2019-05-18T20:51:49.863Z,99861.31
2019-05-18T20:54:18.257Z,99863.08
2019-05-18T20:56:46.693Z,99864.31
2019-05-18T20:59:15.179Z,99861.84
2019-05-18T21:01:43.704Z,99861.39
2019-05-18T21:04:12.175Z,99856.11
2019-05-18T21:06:40.628Z,99860.29
2019-05-18T21:09:09.103Z,99860.29
2019-05-18T21:11:37.585Z,99855.61
2019-05-18T21:14:06.071Z,99862.24
2019-05-18T21:16:34.562Z,99853.52
2019-05-18T21:19:03.080Z,99859.52
2019-05-18T21:21:31.496Z,99869.11
2019-05-18T21:23:59.952Z,99865.08
2019-05-18T21:26:28.425Z,99864.95
2019-05-18T21:29:00.698Z,99864.87
2019-05-18T21:31:27.036Z,99864.59
2019-05-18T21:33:55.574Z,99864.45
2019-05-18T21:36:24.004Z,99867.31
2019-05-18T21:38:52.478Z,99865.38
2019-05-18T21:41:20.965Z,99867.92
2019-05-18T21:43:49.395Z,99870.98
2019-05-18T21:46:17.797Z,99870.66
2019-05-18T21:48:46.228Z,99869.83
2019-05-18T21:51:14.627Z,99864.41
2019-05-18T21:53:43.034Z,99868.41
2019-05-18T21:56:11.516Z,99868.65
2019-05-18T21:58:39.926Z,99873.56
2019-05-18T22:01:08.504Z,99868.35
2019-05-18T22:03:36.916Z,99870.45
2019-05-18T22:06:06.269Z,99872.83
2019-05-18T22:08:34.734Z,99883.89
2019-05-18T22:11:03.264Z,99882.08
2019-05-18T22:13:31.691Z,99881.15
2019-05-18T22:16:00.115Z,99875.91
2019-05-18T22:18:28.541Z,99879.20
2019-05-18T22:20:57.013Z,99875.61
2019-05-18T22:23:25.603Z,99878.05
2019-05-18T22:25:56.831Z,99882.95
2019-05-18T22:28:24.222Z,99889.61
2019-05-18T22:30:52.630Z,99892.47
2019-05-18T22:33:21.067Z,99891.15
2019-05-18T22:35:49.560Z,99894.54
2019-05-18T22:38:18.091Z,99896.56
2019-05-18T22:40:46.519Z,99887.72
2019-05-18T22:43:14.987Z,99880.04
2019-05-18T22:45:43.420Z,99865.89
2019-05-18T22:48:11.978Z,99849.73
2019-05-18T22:50:40.489Z,99832.98
2019-05-18T22:53:09.016Z,99826.39
2019-05-18T22:55:37.486Z,99811.64
2019-05-18T22:58:05.880Z,99812.22
2019-05-18T23:00:34.365Z,99810.27
2019-05-18T23:03:02.878Z,99807.41
2019-05-18T23:05:31.303Z,99810.80
2019-05-18T23:07:59.732Z,99809.05
2019-05-18T23:10:31.405Z,99807.99
2019-05-18T23:12:59.822Z,99799.19
2019-05-18T23:15:28.273Z,99795.87
2019-05-18T23:17:56.698Z,99801.66
2019-05-18T23:20:25.160Z,99792.27
2019-05-18T23:22:53.582Z,99788.80
2019-05-18T23:25:21.997Z,99797.64
2019-05-18T23:27:50.425Z,99790.20
2019-05-18T23:30:18.906Z,99787.91
2019-05-18T23:32:50.353Z,99794.65
2019-05-18T23:35:17.549Z,99790.34
2019-05-18T23:37:45.970Z,99788.83
2019-05-18T23:40:14.918Z,99778.48
2019-05-18T23:42:43.310Z,99781.63
2019-05-18T23:45:12.006Z,99785.67
2019-05-18T23:47:40.429Z,99786.97
2019-05-18T23:50:09.100Z,99786.71
2019-05-18T23:52:37.505Z,99781.33
2019-05-18T23:55:07.257Z,99782.88
2019-05-18T23:57:35.692Z,99783.02
